sensor_id;sensor_type;location;lat;lon;timestamp;pressure;altitude;pressure_sealevel;temperature
71640;BMP280;60912;48.968;10.124;2023-07-22T00:02:16;96587.00;;;16.36
71640;BMP280;60912;48.968;10.124;2023-07-22T00:04:41;96584.94;;;16.17
71640;BMP280;60912;48.968;10.124;2023-07-22T00:07:06;96587.84;;;16.10
71640;BMP280;60912;48.968;10.124;2023-07-22T00:09:35;96589.59;;;16.05
71640;BMP280;60912;48.968;10.124;2023-07-22T00:12:00;96584.47;;;16.02
71640;BMP280;60912;48.968;10.124;2023-07-22T00:14:26;96587.13;;;16.00
71640;BMP280;60912;48.968;10.124;2023-07-22T00:16:51;96592.06;;;16.01
71640;BMP280;60912;48.968;10.124;2023-07-22T00:19:17;96588.13;;;15.95
71640;BMP280;60912;48.968;10.124;2023-07-22T00:21:42;96587.69;;;15.89
71640;BMP280;60912;48.968;10.124;2023-07-22T00:24:08;96586.03;;;15.86
71640;BMP280;60912;48.968;10.124;2023-07-22T00:26:35;96580.91;;;15.82
71640;BMP280;60912;48.968;10.124;2023-07-22T00:29:01;96588.38;;;15.80
71640;BMP280;60912;48.968;10.124;2023-07-22T00:31:27;96589.53;;;15.77
71640;BMP280;60912;48.968;10.124;2023-07-22T00:33:53;96586.94;;;15.79
71640;BMP280;60912;48.968;10.124;2023-07-22T00:36:18;96574.63;;;15.82
71640;BMP280;60912;48.968;10.124;2023-07-22T00:38:43;96581.78;;;15.75
71640;BMP280;60912;48.968;10.124;2023-07-22T00:41:09;96578.69;;;15.81
71640;BMP280;60912;48.968;10.124;2023-07-22T00:43:34;96577.97;;;15.80
71640;BMP280;60912;48.968;10.124;2023-07-22T00:45:59;96576.41;;;15.87
71640;BMP280;60912;48.968;10.124;2023-07-22T00:48:25;96573.78;;;15.89
71640;BMP280;60912;48.968;10.124;2023-07-22T00:50:52;96579.78;;;15.95
71640;BMP280;60912;48.968;10.124;2023-07-22T00:53:18;96572.63;;;15.92
71640;BMP280;60912;48.968;10.124;2023-07-22T00:55:44;96574.66;;;16.01
71640;BMP280;60912;48.968;10.124;2023-07-22T00:58:10;96570.56;;;16.02
71640;BMP280;60912;48.968;10.124;2023-07-22T01:00:36;96567.66;;;16.00
71640;BMP280;60912;48.968;10.124;2023-07-22T01:03:02;96563.09;;;15.95
71640;BMP280;60912;48.968;10.124;2023-07-22T01:05:29;96560.31;;;15.95
71640;BMP280;60912;48.968;10.124;2023-07-22T01:07:55;96565.28;;;15.87
71640;BMP280;60912;48.968;10.124;2023-07-22T01:10:21;96564.84;;;15.90
71640;BMP280;60912;48.968;10.124;2023-07-22T01:12:47;96562.91;;;15.74
71640;BMP280;60912;48.968;10.124;2023-07-22T01:15:12;96566.38;;;15.64
71640;BMP280;60912;48.968;10.124;2023-07-22T01:17:38;96572.69;;;15.65
71640;BMP280;60912;48.968;10.124;2023-07-22T01:20:04;96579.22;;;15.60
71640;BMP280;60912;48.968;10.124;2023-07-22T01:22:31;96574.53;;;15.53
71640;BMP280;60912;48.968;10.124;2023-07-22T01:24:57;96572.00;;;15.47
71640;BMP280;60912;48.968;10.124;2023-07-22T01:27:23;96564.97;;;15.46
71640;BMP280;60912;48.968;10.124;2023-07-22T01:29:53;96570.00;;;15.57
71640;BMP280;60912;48.968;10.124;2023-07-22T01:32:19;96571.94;;;15.64
71640;BMP280;60912;48.968;10.124;2023-07-22T01:34:45;96574.16;;;15.66
71640;BMP280;60912;48.968;10.124;2023-07-22T01:37:11;96562.00;;;15.61
71640;BMP280;60912;48.968;10.124;2023-07-22T01:39:36;96569.84;;;15.55
71640;BMP280;60912;48.968;10.124;2023-07-22T01:42:02;96571.13;;;15.45
71640;BMP280;60912;48.968;10.124;2023-07-22T01:44:27;96569.22;;;15.47
71640;BMP280;60912;48.968;10.124;2023-07-22T01:46:53;96565.88;;;15.49
71640;BMP280;60912;48.968;10.124;2023-07-22T01:49:18;96566.44;;;15.47
71640;BMP280;60912;48.968;10.124;2023-07-22T01:51:44;96562.19;;;15.46
71640;BMP280;60912;48.968;10.124;2023-07-22T01:54:11;96549.84;;;15.30
71640;BMP280;60912;48.968;10.124;2023-07-22T01:56:38;96559.97;;;15.35
71640;BMP280;60912;48.968;10.124;2023-07-22T01:59:03;96562.50;;;15.41
71640;BMP280;60912;48.968;10.124;2023-07-22T02:01:28;96561.50;;;15.46
71640;BMP280;60912;48.968;10.124;2023-07-22T02:03:54;96557.00;;;15.50
71640;BMP280;60912;48.968;10.124;2023-07-22T02:06:20;96557.28;;;15.54
71640;BMP280;60912;48.968;10.124;2023-07-22T02:08:45;96563.00;;;15.56
71640;BMP280;60912;48.968;10.124;2023-07-22T02:11:11;96561.22;;;15.51
71640;BMP280;60912;48.968;10.124;2023-07-22T02:13:36;96564.84;;;15.44
71640;BMP280;60912;48.968;10.124;2023-07-22T02:16:02;96562.50;;;15.41
71640;BMP280;60912;48.968;10.124;2023-07-22T02:18:28;96578.28;;;15.38
71640;BMP280;60912;48.968;10.124;2023-07-22T02:20:55;96578.63;;;15.25
71640;BMP280;60912;48.968;10.124;2023-07-22T02:23:21;96569.09;;;15.18
71640;BMP280;60912;48.968;10.124;2023-07-22T02:25:50;96576.84;;;15.20
71640;BMP280;60912;48.968;10.124;2023-07-22T02:28:16;96568.72;;;15.32
71640;BMP280;60912;48.968;10.124;2023-07-22T02:30:46;96568.91;;;15.43
71640;BMP280;60912;48.968;10.124;2023-07-22T02:33:11;96567.47;;;15.42
71640;BMP280;60912;48.968;10.124;2023-07-22T02:35:37;96570.66;;;15.29
71640;BMP280;60912;48.968;10.124;2023-07-22T02:38:02;96563.88;;;15.23
71640;BMP280;60912;48.968;10.124;2023-07-22T02:40:27;96565.59;;;15.18
71640;BMP280;60912;48.968;10.124;2023-07-22T02:42:53;96565.75;;;15.20
71640;BMP280;60912;48.968;10.124;2023-07-22T02:45:18;96565.09;;;15.29
71640;BMP280;60912;48.968;10.124;2023-07-22T02:47:43;96567.16;;;15.38
71640;BMP280;60912;48.968;10.124;2023-07-22T02:50:09;96568.19;;;15.43
71640;BMP280;60912;48.968;10.124;2023-07-22T02:52:34;96566.00;;;15.41
71640;BMP280;60912;48.968;10.124;2023-07-22T02:55:10;96566.88;;;15.44
71640;BMP280;60912;48.968;10.124;2023-07-22T02:57:39;96573.31;;;15.46
71640;BMP280;60912;48.968;10.124;2023-07-22T03:00:06;96584.41;;;15.46
71640;BMP280;60912;48.968;10.124;2023-07-22T03:02:37;96584.66;;;15.31
71640;BMP280;60912;48.968;10.124;2023-07-22T03:05:09;96588.66;;;15.11
71640;BMP280;60912;48.968;10.124;2023-07-22T03:07:35;96590.44;;;15.16
71640;BMP280;60912;48.968;10.124;2023-07-22T03:10:01;96586.34;;;15.17
71640;BMP280;60912;48.968;10.124;2023-07-22T03:12:27;96584.03;;;15.23
71640;BMP280;60912;48.968;10.124;2023-07-22T03:14:52;96592.84;;;15.29
71640;BMP280;60912;48.968;10.124;2023-07-22T03:17:18;96582.00;;;15.24
71640;BMP280;60912;48.968;10.124;2023-07-22T03:19:44;96594.81;;;15.19
71640;BMP280;60912;48.968;10.124;2023-07-22T03:22:10;96583.53;;;14.90
71640;BMP280;60912;48.968;10.124;2023-07-22T03:24:36;96584.13;;;14.89
71640;BMP280;60912;48.968;10.124;2023-07-22T03:27:01;96588.81;;;14.96
71640;BMP280;60912;48.968;10.124;2023-07-22T03:29:27;96591.03;;;14.80
71640;BMP280;60912;48.968;10.124;2023-07-22T03:31:53;96601.66;;;14.74
71640;BMP280;60912;48.968;10.124;2023-07-22T03:34:18;96589.50;;;14.69
71640;BMP280;60912;48.968;10.124;2023-07-22T03:36:43;96597.03;;;14.59
71640;BMP280;60912;48.968;10.124;2023-07-22T03:39:09;96587.91;;;14.66
71640;BMP280;60912;48.968;10.124;2023-07-22T03:41:34;96585.16;;;14.66
71640;BMP280;60912;48.968;10.124;2023-07-22T03:43:59;96589.50;;;14.69
71640;BMP280;60912;48.968;10.124;2023-07-22T03:46:25;96591.00;;;14.70
71640;BMP280;60912;48.968;10.124;2023-07-22T03:48:50;96589.75;;;14.81
71640;BMP280;60912;48.968;10.124;2023-07-22T03:51:15;96590.28;;;14.97
71640;BMP280;60912;48.968;10.124;2023-07-22T03:53:41;96587.50;;;15.14
71640;BMP280;60912;48.968;10.124;2023-07-22T03:56:06;96588.13;;;15.22
71640;BMP280;60912;48.968;10.124;2023-07-22T03:58:31;96592.19;;;15.21
71640;BMP280;60912;48.968;10.124;2023-07-22T04:00:57;96588.50;;;15.18
71640;BMP280;60912;48.968;10.124;2023-07-22T04:03:22;96597.31;;;15.25
71640;BMP280;60912;48.968;10.124;2023-07-22T04:05:56;96600.19;;;15.44
71640;BMP280;60912;48.968;10.124;2023-07-22T04:08:22;96590.47;;;15.52
71640;BMP280;60912;48.968;10.124;2023-07-22T04:10:52;96593.88;;;15.34
71640;BMP280;60912;48.968;10.124;2023-07-22T04:13:17;96597.19;;;15.49
71640;BMP280;60912;48.968;10.124;2023-07-22T04:15:43;96592.69;;;15.63
71640;BMP280;60912;48.968;10.124;2023-07-22T04:18:08;96592.41;;;16.15
71640;BMP280;60912;48.968;10.124;2023-07-22T04:20:33;96582.00;;;16.83
71640;BMP280;60912;48.968;10.124;2023-07-22T04:22:59;96575.97;;;17.77
71640;BMP280;60912;48.968;10.124;2023-07-22T04:25:24;96578.25;;;17.90
71640;BMP280;60912;48.968;10.124;2023-07-22T04:27:49;96584.66;;;18.02
71640;BMP280;60912;48.968;10.124;2023-07-22T04:30:15;96577.50;;;17.89
71640;BMP280;60912;48.968;10.124;2023-07-22T04:32:47;96573.81;;;17.35
71640;BMP280;60912;48.968;10.124;2023-07-22T04:35:13;96570.72;;;16.90
71640;BMP280;60912;48.968;10.124;2023-07-22T04:37:38;96565.00;;;16.69
71640;BMP280;60912;48.968;10.124;2023-07-22T04:40:04;96573.69;;;16.54
71640;BMP280;60912;48.968;10.124;2023-07-22T04:42:31;96575.88;;;16.36
71640;BMP280;60912;48.968;10.124;2023-07-22T04:44:56;96564.91;;;16.48
71640;BMP280;60912;48.968;10.124;2023-07-22T04:47:22;96569.56;;;16.74
71640;BMP280;60912;48.968;10.124;2023-07-22T04:49:47;96564.25;;;16.97
71640;BMP280;60912;48.968;10.124;2023-07-22T04:52:12;96565.22;;;17.21
71640;BMP280;60912;48.968;10.124;2023-07-22T04:54:38;96567.63;;;17.77
71640;BMP280;60912;48.968;10.124;2023-07-22T04:57:03;96574.50;;;19.51
71640;BMP280;60912;48.968;10.124;2023-07-22T04:59:29;96576.94;;;21.72
71640;BMP280;60912;48.968;10.124;2023-07-22T05:01:54;96569.59;;;23.78
71640;BMP280;60912;48.968;10.124;2023-07-22T05:04:19;96570.94;;;25.03
71640;BMP280;60912;48.968;10.124;2023-07-22T05:06:45;96563.97;;;26.30
71640;BMP280;60912;48.968;10.124;2023-07-22T05:09:10;96567.81;;;25.95
71640;BMP280;60912;48.968;10.124;2023-07-22T05:11:35;96572.16;;;24.78
71640;BMP280;60912;48.968;10.124;2023-07-22T05:14:01;96582.97;;;25.42
71640;BMP280;60912;48.968;10.124;2023-07-22T05:16:26;96578.19;;;25.27
71640;BMP280;60912;48.968;10.124;2023-07-22T05:18:51;96581.88;;;25.93
71640;BMP280;60912;48.968;10.124;2023-07-22T05:21:17;96582.22;;;26.72
71640;BMP280;60912;48.968;10.124;2023-07-22T05:23:42;96581.59;;;26.74
71640;BMP280;60912;48.968;10.124;2023-07-22T05:26:07;96581.50;;;26.72
71640;BMP280;60912;48.968;10.124;2023-07-22T05:28:33;96575.25;;;26.51
71640;BMP280;60912;48.968;10.124;2023-07-22T05:30:59;96577.47;;;26.79
71640;BMP280;60912;48.968;10.124;2023-07-22T05:33:24;96576.03;;;27.55
71640;BMP280;60912;48.968;10.124;2023-07-22T05:35:50;96573.78;;;27.49
71640;BMP280;60912;48.968;10.124;2023-07-22T05:38:15;96576.84;;;27.59
71640;BMP280;60912;48.968;10.124;2023-07-22T05:40:40;96581.34;;;27.68
71640;BMP280;60912;48.968;10.124;2023-07-22T05:43:06;96579.28;;;27.43
71640;BMP280;60912;48.968;10.124;2023-07-22T05:45:31;96587.06;;;27.70
71640;BMP280;60912;48.968;10.124;2023-07-22T05:47:56;96583.34;;;27.36
71640;BMP280;60912;48.968;10.124;2023-07-22T05:50:22;96599.28;;;27.23
71640;BMP280;60912;48.968;10.124;2023-07-22T05:52:47;96609.63;;;27.15
71640;BMP280;60912;48.968;10.124;2023-07-22T05:55:13;96600.75;;;27.01
71640;BMP280;60912;48.968;10.124;2023-07-22T05:57:38;96609.84;;;26.06
71640;BMP280;60912;48.968;10.124;2023-07-22T06:00:04;96609.91;;;25.87
71640;BMP280;60912;48.968;10.124;2023-07-22T06:02:30;96602.75;;;26.27
71640;BMP280;60912;48.968;10.124;2023-07-22T06:04:55;96611.88;;;26.47
71640;BMP280;60912;48.968;10.124;2023-07-22T06:07:20;96609.22;;;26.08
71640;BMP280;60912;48.968;10.124;2023-07-22T06:09:46;96622.09;;;25.72
71640;BMP280;60912;48.968;10.124;2023-07-22T06:12:11;96617.38;;;25.78
71640;BMP280;60912;48.968;10.124;2023-07-22T06:14:36;96614.66;;;25.61
71640;BMP280;60912;48.968;10.124;2023-07-22T06:17:02;96624.06;;;25.48
71640;BMP280;60912;48.968;10.124;2023-07-22T06:19:27;96628.75;;;25.02
71640;BMP280;60912;48.968;10.124;2023-07-22T06:21:53;96618.88;;;25.03
71640;BMP280;60912;48.968;10.124;2023-07-22T06:24:18;96621.16;;;25.06
71640;BMP280;60912;48.968;10.124;2023-07-22T06:26:43;96620.59;;;25.29
71640;BMP280;60912;48.968;10.124;2023-07-22T06:29:09;96630.03;;;25.77
71640;BMP280;60912;48.968;10.124;2023-07-22T06:31:34;96625.19;;;25.99
71640;BMP280;60912;48.968;10.124;2023-07-22T06:33:59;96621.63;;;25.99
71640;BMP280;60912;48.968;10.124;2023-07-22T06:36:25;96631.53;;;25.59
71640;BMP280;60912;48.968;10.124;2023-07-22T06:38:51;96628.53;;;25.15
71640;BMP280;60912;48.968;10.124;2023-07-22T06:41:16;96626.78;;;24.87
71640;BMP280;60912;48.968;10.124;2023-07-22T06:43:43;96627.31;;;24.83
71640;BMP280;60912;48.968;10.124;2023-07-22T06:46:08;96625.88;;;24.82
71640;BMP280;60912;48.968;10.124;2023-07-22T06:48:33;96627.81;;;24.95
71640;BMP280;60912;48.968;10.124;2023-07-22T06:50:59;96628.44;;;24.94
71640;BMP280;60912;48.968;10.124;2023-07-22T06:53:24;96631.88;;;25.29
71640;BMP280;60912;48.968;10.124;2023-07-22T06:55:51;96631.00;;;25.64
71640;BMP280;60912;48.968;10.124;2023-07-22T06:58:16;96624.19;;;25.52
71640;BMP280;60912;48.968;10.124;2023-07-22T07:00:42;96626.94;;;25.10
71640;BMP280;60912;48.968;10.124;2023-07-22T07:03:07;96637.81;;;25.37
71640;BMP280;60912;48.968;10.124;2023-07-22T07:05:33;96627.97;;;25.19
71640;BMP280;60912;48.968;10.124;2023-07-22T07:07:59;96641.03;;;25.89
71640;BMP280;60912;48.968;10.124;2023-07-22T07:10:25;96626.97;;;26.56
71640;BMP280;60912;48.968;10.124;2023-07-22T07:12:50;96634.22;;;25.96
71640;BMP280;60912;48.968;10.124;2023-07-22T07:15:15;96646.63;;;25.87
71640;BMP280;60912;48.968;10.124;2023-07-22T07:17:40;96644.94;;;25.80
71640;BMP280;60912;48.968;10.124;2023-07-22T07:20:06;96641.06;;;26.11
71640;BMP280;60912;48.968;10.124;2023-07-22T07:22:32;96642.94;;;26.04
71640;BMP280;60912;48.968;10.124;2023-07-22T07:24:57;96654.19;;;26.45
71640;BMP280;60912;48.968;10.124;2023-07-22T07:27:22;96646.94;;;27.09
71640;BMP280;60912;48.968;10.124;2023-07-22T07:29:48;96653.44;;;27.38
71640;BMP280;60912;48.968;10.124;2023-07-22T07:32:13;96649.09;;;27.09
71640;BMP280;60912;48.968;10.124;2023-07-22T07:34:38;96647.84;;;26.45
71640;BMP280;60912;48.968;10.124;2023-07-22T07:37:04;96649.16;;;25.79
71640;BMP280;60912;48.968;10.124;2023-07-22T07:39:30;96649.34;;;25.63
71640;BMP280;60912;48.968;10.124;2023-07-22T07:41:55;96635.88;;;26.25
71640;BMP280;60912;48.968;10.124;2023-07-22T07:44:21;96652.09;;;26.02
71640;BMP280;60912;48.968;10.124;2023-07-22T07:46:46;96649.47;;;26.09
71640;BMP280;60912;48.968;10.124;2023-07-22T07:49:11;96643.47;;;26.63
71640;BMP280;60912;48.968;10.124;2023-07-22T07:51:37;96646.84;;;26.36
71640;BMP280;60912;48.968;10.124;2023-07-22T07:54:02;96657.63;;;25.79
71640;BMP280;60912;48.968;10.124;2023-07-22T07:56:29;96651.81;;;25.94
71640;BMP280;60912;48.968;10.124;2023-07-22T07:58:54;96654.25;;;26.04
71640;BMP280;60912;48.968;10.124;2023-07-22T08:01:20;96649.81;;;25.77
71640;BMP280;60912;48.968;10.124;2023-07-22T08:03:46;96649.38;;;25.65
71640;BMP280;60912;48.968;10.124;2023-07-22T08:06:12;96649.31;;;26.04
71640;BMP280;60912;48.968;10.124;2023-07-22T08:08:38;96646.03;;;26.55
71640;BMP280;60912;48.968;10.124;2023-07-22T08:11:08;96649.69;;;27.05
71640;BMP280;60912;48.968;10.124;2023-07-22T08:13:34;96643.47;;;26.87
71640;BMP280;60912;48.968;10.124;2023-07-22T08:16:02;96638.16;;;27.23
71640;BMP280;60912;48.968;10.124;2023-07-22T08:18:29;96648.88;;;26.34
71640;BMP280;60912;48.968;10.124;2023-07-22T08:20:54;96644.19;;;26.42
71640;BMP280;60912;48.968;10.124;2023-07-22T08:23:20;96641.44;;;26.44
71640;BMP280;60912;48.968;10.124;2023-07-22T08:25:45;96635.66;;;26.86
71640;BMP280;60912;48.968;10.124;2023-07-22T08:28:11;96642.38;;;26.51
71640;BMP280;60912;48.968;10.124;2023-07-22T08:30:36;96638.78;;;26.72
71640;BMP280;60912;48.968;10.124;2023-07-22T08:33:02;96637.53;;;27.01
71640;BMP280;60912;48.968;10.124;2023-07-22T08:35:27;96635.72;;;26.88
71640;BMP280;60912;48.968;10.124;2023-07-22T08:37:53;96637.69;;;27.07
71640;BMP280;60912;48.968;10.124;2023-07-22T08:40:19;96631.66;;;27.18
71640;BMP280;60912;48.968;10.124;2023-07-22T08:42:45;96632.53;;;26.76
71640;BMP280;60912;48.968;10.124;2023-07-22T08:45:14;96640.34;;;26.10
71640;BMP280;60912;48.968;10.124;2023-07-22T08:47:45;96624.72;;;26.52
71640;BMP280;60912;48.968;10.124;2023-07-22T08:50:15;96630.94;;;27.18
71640;BMP280;60912;48.968;10.124;2023-07-22T08:52:41;96617.13;;;27.56
71640;BMP280;60912;48.968;10.124;2023-07-22T08:55:08;96628.69;;;26.89
71640;BMP280;60912;48.968;10.124;2023-07-22T08:57:36;96622.91;;;27.08
71640;BMP280;60912;48.968;10.124;2023-07-22T09:00:02;96621.00;;;27.68
71640;BMP280;60912;48.968;10.124;2023-07-22T09:02:31;96629.47;;;28.24
71640;BMP280;60912;48.968;10.124;2023-07-22T09:04:57;96626.25;;;28.37
71640;BMP280;60912;48.968;10.124;2023-07-22T09:07:23;96621.31;;;28.38
71640;BMP280;60912;48.968;10.124;2023-07-22T09:09:50;96617.81;;;28.73
71640;BMP280;60912;48.968;10.124;2023-07-22T09:12:17;96612.84;;;29.07
71640;BMP280;60912;48.968;10.124;2023-07-22T09:14:43;96618.28;;;28.95
71640;BMP280;60912;48.968;10.124;2023-07-22T09:17:09;96624.59;;;28.58
71640;BMP280;60912;48.968;10.124;2023-07-22T09:19:34;96625.38;;;28.94
71640;BMP280;60912;48.968;10.124;2023-07-22T09:22:01;96616.22;;;28.66
71640;BMP280;60912;48.968;10.124;2023-07-22T09:24:26;96615.78;;;28.78
71640;BMP280;60912;48.968;10.124;2023-07-22T09:26:55;96614.00;;;28.94
71640;BMP280;60912;48.968;10.124;2023-07-22T09:29:36;96613.72;;;28.80
71640;BMP280;60912;48.968;10.124;2023-07-22T09:32:02;96612.44;;;28.87
71640;BMP280;60912;48.968;10.124;2023-07-22T09:34:28;96606.88;;;28.93
71640;BMP280;60912;48.968;10.124;2023-07-22T09:36:58;96610.56;;;28.66
71640;BMP280;60912;48.968;10.124;2023-07-22T09:39:29;96616.97;;;28.35
71640;BMP280;60912;48.968;10.124;2023-07-22T09:41:55;96603.75;;;28.79
71640;BMP280;60912;48.968;10.124;2023-07-22T09:44:28;96616.38;;;29.42
71640;BMP280;60912;48.968;10.124;2023-07-22T09:46:57;96610.13;;;29.49
71640;BMP280;60912;48.968;10.124;2023-07-22T09:49:22;96600.81;;;28.73
71640;BMP280;60912;48.968;10.124;2023-07-22T09:51:50;96598.50;;;27.74
71640;BMP280;60912;48.968;10.124;2023-07-22T09:54:16;96605.38;;;27.14
71640;BMP280;60912;48.968;10.124;2023-07-22T09:56:47;96605.00;;;27.02
71640;BMP280;60912;48.968;10.124;2023-07-22T09:59:13;96603.69;;;27.05
71640;BMP280;60912;48.968;10.124;2023-07-22T10:01:39;96607.50;;;27.39
71640;BMP280;60912;48.968;10.124;2023-07-22T10:04:06;96602.25;;;27.55
71640;BMP280;60912;48.968;10.124;2023-07-22T10:06:32;96597.78;;;28.02
71640;BMP280;60912;48.968;10.124;2023-07-22T10:09:08;96599.50;;;28.46
71640;BMP280;60912;48.968;10.124;2023-07-22T10:11:35;96600.91;;;27.86
71640;BMP280;60912;48.968;10.124;2023-07-22T10:14:04;96597.59;;;27.40
71640;BMP280;60912;48.968;10.124;2023-07-22T10:16:30;96604.03;;;27.17
71640;BMP280;60912;48.968;10.124;2023-07-22T10:18:57;96597.75;;;26.95
71640;BMP280;60912;48.968;10.124;2023-07-22T10:21:24;96599.34;;;27.02
71640;BMP280;60912;48.968;10.124;2023-07-22T10:23:50;96599.78;;;26.68
71640;BMP280;60912;48.968;10.124;2023-07-22T10:26:17;96602.34;;;26.37
71640;BMP280;60912;48.968;10.124;2023-07-22T10:28:44;96606.75;;;26.65
71640;BMP280;60912;48.968;10.124;2023-07-22T10:31:11;96601.47;;;26.78
71640;BMP280;60912;48.968;10.124;2023-07-22T10:33:38;96597.59;;;26.91
71640;BMP280;60912;48.968;10.124;2023-07-22T10:36:04;96597.53;;;26.63
71640;BMP280;60912;48.968;10.124;2023-07-22T10:38:30;96595.56;;;26.46
71640;BMP280;60912;48.968;10.124;2023-07-22T10:40:56;96594.31;;;26.29
71640;BMP280;60912;48.968;10.124;2023-07-22T10:43:29;96597.88;;;26.51
71640;BMP280;60912;48.968;10.124;2023-07-22T10:45:57;96594.38;;;26.77
71640;BMP280;60912;48.968;10.124;2023-07-22T10:48:27;96590.88;;;27.02
71640;BMP280;60912;48.968;10.124;2023-07-22T10:51:09;96598.81;;;27.07
71640;BMP280;60912;48.968;10.124;2023-07-22T10:53:43;96591.09;;;27.10
71640;BMP280;60912;48.968;10.124;2023-07-22T11:11:59;96586.94;;;25.96
71640;BMP280;60912;48.968;10.124;2023-07-22T11:14:26;96586.75;;;26.57
71640;BMP280;60912;48.968;10.124;2023-07-22T11:16:52;96574.59;;;27.28
71640;BMP280;60912;48.968;10.124;2023-07-22T11:19:20;96569.78;;;27.58
71640;BMP280;60912;48.968;10.124;2023-07-22T11:21:47;96568.78;;;28.35
71640;BMP280;60912;48.968;10.124;2023-07-22T11:24:13;96560.84;;;27.97
71640;BMP280;60912;48.968;10.124;2023-07-22T11:26:39;96559.94;;;28.21
71640;BMP280;60912;48.968;10.124;2023-07-22T11:29:06;96561.59;;;28.63
71640;BMP280;60912;48.968;10.124;2023-07-22T11:31:36;96562.81;;;28.52
71640;BMP280;60912;48.968;10.124;2023-07-22T11:34:03;96556.66;;;28.98
71640;BMP280;60912;48.968;10.124;2023-07-22T11:36:29;96548.31;;;28.72
71640;BMP280;60912;48.968;10.124;2023-07-22T11:39:04;96555.56;;;28.14
71640;BMP280;60912;48.968;10.124;2023-07-22T11:41:30;96547.22;;;28.22
71640;BMP280;60912;48.968;10.124;2023-07-22T11:43:59;96546.63;;;28.59
71640;BMP280;60912;48.968;10.124;2023-07-22T11:46:26;96540.84;;;28.55
71640;BMP280;60912;48.968;10.124;2023-07-22T11:48:52;96536.78;;;28.62
71640;BMP280;60912;48.968;10.124;2023-07-22T11:51:23;96537.94;;;28.51
71640;BMP280;60912;48.968;10.124;2023-07-22T11:53:53;96524.66;;;28.26
71640;BMP280;60912;48.968;10.124;2023-07-22T11:56:24;96531.84;;;28.31
71640;BMP280;60912;48.968;10.124;2023-07-22T11:58:59;96521.53;;;28.81
71640;BMP280;60912;48.968;10.124;2023-07-22T12:01:31;96522.78;;;29.10
71640;BMP280;60912;48.968;10.124;2023-07-22T12:03:57;96514.78;;;28.62
71640;BMP280;60912;48.968;10.124;2023-07-22T12:06:26;96521.41;;;28.08
71640;BMP280;60912;48.968;10.124;2023-07-22T12:08:51;96513.25;;;28.24
71640;BMP280;60912;48.968;10.124;2023-07-22T12:11:22;96509.25;;;28.35
71640;BMP280;60912;48.968;10.124;2023-07-22T12:13:49;96511.88;;;28.94
71640;BMP280;60912;48.968;10.124;2023-07-22T12:16:29;96502.69;;;27.94
71640;BMP280;60912;48.968;10.124;2023-07-22T12:18:55;96493.38;;;28.22
71640;BMP280;60912;48.968;10.124;2023-07-22T12:21:21;96500.66;;;28.64
71640;BMP280;60912;48.968;10.124;2023-07-22T12:23:46;96488.84;;;28.76
71640;BMP280;60912;48.968;10.124;2023-07-22T12:26:12;96496.34;;;28.61
71640;BMP280;60912;48.968;10.124;2023-07-22T12:28:37;96474.25;;;27.90
71640;BMP280;60912;48.968;10.124;2023-07-22T12:31:02;96493.63;;;27.43
71640;BMP280;60912;48.968;10.124;2023-07-22T12:33:28;96481.81;;;27.22
71640;BMP280;60912;48.968;10.124;2023-07-22T12:35:54;96485.06;;;27.39
71640;BMP280;60912;48.968;10.124;2023-07-22T12:38:19;96478.63;;;27.95
71640;BMP280;60912;48.968;10.124;2023-07-22T12:40:45;96475.25;;;28.35
71640;BMP280;60912;48.968;10.124;2023-07-22T12:43:10;96477.31;;;28.68
71640;BMP280;60912;48.968;10.124;2023-07-22T12:45:35;96474.38;;;28.26
71640;BMP280;60912;48.968;10.124;2023-07-22T12:48:01;96474.03;;;28.12
71640;BMP280;60912;48.968;10.124;2023-07-22T12:50:28;96467.03;;;28.49
71640;BMP280;60912;48.968;10.124;2023-07-22T12:52:53;96467.50;;;28.73
71640;BMP280;60912;48.968;10.124;2023-07-22T12:55:18;96477.03;;;28.52
71640;BMP280;60912;48.968;10.124;2023-07-22T12:57:44;96467.50;;;28.37
71640;BMP280;60912;48.968;10.124;2023-07-22T13:00:10;96466.53;;;28.25
71640;BMP280;60912;48.968;10.124;2023-07-22T13:02:37;96469.25;;;28.52
71640;BMP280;60912;48.968;10.124;2023-07-22T13:05:03;96462.38;;;28.65
71640;BMP280;60912;48.968;10.124;2023-07-22T13:07:31;96466.50;;;28.23
71640;BMP280;60912;48.968;10.124;2023-07-22T13:09:56;96463.28;;;28.07
71640;BMP280;60912;48.968;10.124;2023-07-22T13:12:23;96460.16;;;27.92
71640;BMP280;60912;48.968;10.124;2023-07-22T13:14:49;96463.03;;;27.94
71640;BMP280;60912;48.968;10.124;2023-07-22T13:17:14;96459.75;;;27.74
71640;BMP280;60912;48.968;10.124;2023-07-22T13:19:39;96462.19;;;27.90
71640;BMP280;60912;48.968;10.124;2023-07-22T13:22:04;96460.31;;;28.32
71640;BMP280;60912;48.968;10.124;2023-07-22T13:24:30;96456.19;;;28.75
71640;BMP280;60912;48.968;10.124;2023-07-22T13:26:55;96457.50;;;28.34
71640;BMP280;60912;48.968;10.124;2023-07-22T13:29:21;96449.00;;;28.01
71640;BMP280;60912;48.968;10.124;2023-07-22T13:31:46;96457.03;;;27.80
71640;BMP280;60912;48.968;10.124;2023-07-22T13:34:11;96454.63;;;27.69
71640;BMP280;60912;48.968;10.124;2023-07-22T13:36:37;96447.91;;;27.54
71640;BMP280;60912;48.968;10.124;2023-07-22T13:39:02;96453.97;;;27.13
71640;BMP280;60912;48.968;10.124;2023-07-22T13:41:28;96448.81;;;27.05
71640;BMP280;60912;48.968;10.124;2023-07-22T13:43:53;96439.09;;;27.40
71640;BMP280;60912;48.968;10.124;2023-07-22T13:46:19;96440.03;;;28.12
71640;BMP280;60912;48.968;10.124;2023-07-22T13:48:44;96433.88;;;28.22
71640;BMP280;60912;48.968;10.124;2023-07-22T13:51:10;96440.34;;;28.62
71640;BMP280;60912;48.968;10.124;2023-07-22T13:53:35;96431.44;;;29.19
71640;BMP280;60912;48.968;10.124;2023-07-22T13:56:01;96438.44;;;29.12
71640;BMP280;60912;48.968;10.124;2023-07-22T13:58:26;96422.25;;;28.81
71640;BMP280;60912;48.968;10.124;2023-07-22T14:00:51;96427.16;;;28.41
71640;BMP280;60912;48.968;10.124;2023-07-22T14:03:17;96423.38;;;27.94
71640;BMP280;60912;48.968;10.124;2023-07-22T14:05:42;96423.06;;;27.80
71640;BMP280;60912;48.968;10.124;2023-07-22T14:08:08;96421.84;;;27.89